EDT,Max TemperatureF,Mean TemperatureF,Min TemperatureF,Max Dew PointF,MeanDew PointF,Min DewpointF,Max Humidity, Mean Humidity, Min Humidity, Max Sea Level PressureIn, Mean Sea Level PressureIn, Min Sea Level PressureIn, Max VisibilityMiles, Mean VisibilityMiles, Min VisibilityMiles, Max Wind SpeedMPH, Mean Wind SpeedMPH, Max Gust SpeedMPH,PrecipitationIn, CloudCover, Events, WindDirDegrees
2012-10-1,63,52,42,50,44,39,95,73,42,29.94,29.87,29.75,10,9,2,16,4,22,0.12,3,,85
2012-10-2,73,62,52,63,57,50,95,88,68,29.91,29.79,29.73,10,5,0,14,6,17,0.44,8,,44
2012-10-3,66,62,57,59,54,49,96,78,53,30.15,30.05,29.91,10,7,0,15,5,21,0.01,5,,213
2012-10-4,76,61,46,53,50,46,95,69,37,30.20,30.16,30.13,10,9,5,18,7,26,0.01,1,,235
2012-10-5,70,57,44,55,51,42,91,78,55,30.13,30.07,29.98,10,9,3,14,7,18,0.00,5,,273
2012-10-6,55,46,37,41,35,28,93,67,36,30.14,30.07,29.97,10,10,2,13,8,17,0.01,2,,312
2012-10-7,48,44,37,36,33,30,78,66,51,30.18,30.14,30.10,10,10,7,10,4,,0.00,8,,291
2012-10-8,54,42,29,36,30,27,96,69,37,30.25,30.19,30.15,10,10,10,12,2,16,0.01,0,,212
2012-10-9,61,46,32,41,35,31,99,70,32,30.18,30.09,29.96,10,8,0,16,6,21,0.00,1,,202
2012-10-10,54,43,32,43,35,27,88,68,39,30.22,30.03,29.89,10,10,4,18,9,26,0.00,4,,271
2012-10-11,59,44,30,32,28,24,88,61,27,30.29,30.22,30.15,10,10,10,14,4,21,0.00,0,,237
2012-10-12,54,45,34,38,30,21,84,54,28,30.40,30.31,30.18,10,10,3,13,6,20,0.00,3,,21
2012-10-13,69,49,29,54,38,27,94,65,38,30.38,30.21,30.02,10,10,10,17,4,22,0.00,2,,195
2012-10-14,72,66,59,58,55,52,86,69,52,30.02,29.86,29.68,10,10,4,32,15,45,0.07,6,,212
2012-10-15,58,50,41,55,44,37,88,76,63,29.96,29.85,29.72,10,9,3,22,12,30,0.19,8,,287
2012-10-16,61,46,32,38,36,32,97,66,37,30.01,29.93,29.82,10,9,1,10,4,,0.00,1,,227
2012-10-17,74,62,49,47,42,37,67,53,30,29.84,29.76,29.63,10,10,10,20,9,28,0.00,5,,191
2012-10-18,62,55,48,48,37,27,90,50,27,29.72,29.62,29.51,10,10,4,24,12,36,0.04,3,,210
2012-10-19,54,50,45,43,40,30,90,73,45,29.69,29.64,29.58,10,9,2,14,10,21,0.00,7,,204
2012-10-20,54,46,37,43,39,35,90,75,51,29.97,29.81,29.68,10,10,4,17,9,25,0.00,6,,258
2012-10-21,61,47,33,43,38,32,97,76,43,30.15,30.09,29.99,10,9,2,9,4,17,0.00,0,,223
2012-10-22,76,60,43,52,46,39,86,64,38,30.15,30.10,30.04,10,10,10,15,5,20,0.00,3,,211
2012-10-23,73,66,58,54,50,47,83,60,44,30.08,30.04,30.00,10,10,2,23,8,28,0.02,5,,230
2012-10-24,78,68,57,53,51,47,79,59,32,30.12,30.07,30.03,10,10,10,16,8,23,0.00,4,,215
2012-10-25,77,63,49,50,47,45,84,57,33,30.09,30.02,29.96,10,10,10,20,8,25,0.00,0,,208
2012-10-26,59,52,44,52,45,42,92,84,66,30.16,30.10,29.97,10,7,1,15,9,22,0.02,6,,2
2012-10-27,47,44,42,43,40,34,93,82,62,30.13,30.09,30.05,10,8,2,18,13,28,0.04,8,,17
2012-10-28,44,40,37,36,35,31,91,77,61,30.11,30.04,30.00,10,8,3,23,14,32,0.00,8,,13
2012-10-29,39,36,34,34,33,32,92,87,78,30.01,29.87,29.62,10,10,5,26,18,37,0.00,8,,350
2012-10-30,37,34,32,35,33,30,93,91,88,29.60,29.46,29.39,10,6,2,30,22,40,0.02,8,,331
2012-10-31,40,38,36,37,35,33,93,89,80,29.73,29.63,29.54,10,7,1,16,13,25,0.01,8,,304